Time;durP1;ratioP1;P1;durP2;ratioP2;P2;SDS_P1;SDS_P2;PMS_P1;PMS_P2;Temp;Humidity;BMP_temperature;BMP_pressure;BME280_temperature;BME280_humidity;BME280_pressure;Samples;Min_cycle;Max_cycle;Signal;HPM_P1;HPM_P2
2022/04/18 00:01:20;;;;;;;6.90;3.95;;;;;;;5.97;52.14;100702.28;5079366;28;20436;-68
2022/04/18 00:03:45;;;;;;;6.07;3.90;;;;;;;5.83;52.12;100681.00;5084695;28;20117;-68
2022/04/18 00:06:11;;;;;;;5.13;3.35;;;;;;;5.80;52.40;100691.81;5074106;28;20024;-68
2022/04/18 00:08:36;;;;;;;5.10;3.85;;;;;;;5.73;53.01;100692.28;5083644;28;20064;-68
2022/04/18 00:11:02;;;;;;;7.88;4.15;;;;;;;5.65;52.80;100676.81;5074874;28;20549;-67
2022/04/18 00:13:27;;;;;;;5.60;3.80;;;;;;;5.60;53.33;100684.22;5077250;28;20020;-68
2022/04/18 00:15:53;;;;;;;7.68;4.30;;;;;;;5.48;53.37;100673.50;5079242;28;20029;-67
2022/04/18 00:18:18;;;;;;;4.88;3.60;;;;;;;5.49;53.90;100677.84;5076344;28;20470;-67
2022/04/18 00:20:44;;;;;;;6.32;4.00;;;;;;;5.42;53.94;100688.00;5077595;28;20025;-67
2022/04/18 00:23:09;;;;;;;4.32;3.78;;;;;;;5.33;54.14;100677.06;5084516;28;20032;-67
2022/04/18 00:25:34;;;;;;;6.63;4.13;;;;;;;5.24;54.46;100664.31;5077025;28;20037;-68
2022/04/18 00:28:00;;;;;;;6.40;4.03;;;;;;;5.20;54.92;100676.97;5084913;28;20024;-67
2022/04/18 00:30:25;;;;;;;5.80;3.92;;;;;;;5.12;55.14;100663.25;5076943;28;20028;-67
2022/04/18 00:32:51;;;;;;;6.97;4.40;;;;;;;5.05;55.37;100667.25;5079541;28;20048;-68
2022/04/18 00:35:16;;;;;;;4.53;3.35;;;;;;;4.99;55.69;100669.44;5078190;28;20044;-68
2022/04/18 00:37:42;;;;;;;5.28;4.20;;;;;;;4.91;56.12;100661.91;5084698;28;20027;-68
2022/04/18 00:40:11;;;;;;;7.25;3.53;;;;;;;4.86;56.07;100668.44;5083937;28;20475;-68
2022/04/18 00:42:36;;;;;;;7.03;4.15;;;;;;;4.78;56.48;100664.41;5076284;28;20020;-68
2022/04/18 00:45:02;;;;;;;6.60;4.00;;;;;;;4.69;56.63;100662.31;5080442;28;20027;-68
2022/04/18 00:47:27;;;;;;;7.38;3.90;;;;;;;4.61;57.04;100656.56;5082673;28;20044;-68
2022/04/18 00:49:53;;;;;;;6.97;4.00;;;;;;;4.58;57.43;100658.56;5087790;28;20031;-67
2022/04/18 00:52:19;;;;;;;5.07;3.25;;;;;;;4.55;57.65;100662.22;5083989;28;20032;-67
2022/04/18 00:54:47;;;;;;;5.75;4.13;;;;;;;4.52;57.52;100650.94;5076417;28;20021;-67
2022/04/18 00:57:12;;;;;;;6.35;3.88;;;;;;;4.47;57.75;100659.19;5084947;28;20028;-67
2022/04/18 00:59:38;;;;;;;5.90;3.90;;;;;;;4.34;58.15;100642.25;5080408;28;20024;-67
2022/04/18 01:02:04;;;;;;;6.70;4.00;;;;;;;4.40;58.23;100649.00;5086196;28;20055;-67
2022/04/18 01:04:31;;;;;;;6.25;4.50;;;;;;;4.38;58.26;100651.75;5085726;28;20048;-67
2022/04/18 01:06:58;;;;;;;5.45;4.20;;;;;;;4.36;58.18;100647.47;5088579;28;20102;-68
2022/04/18 01:09:24;;;;;;;6.93;3.92;;;;;;;4.27;58.24;100634.72;5075886;28;20429;-68
2022/04/18 01:11:50;;;;;;;7.38;4.30;;;;;;;4.29;58.07;100638.13;5073238;28;20024;-68
2022/04/18 01:14:15;;;;;;;7.38;4.18;;;;;;;4.25;58.54;100636.59;5083330;28;20036;-67
2022/04/18 01:16:42;;;;;;;7.22;4.43;;;;;;;4.20;59.30;100625.38;5079454;28;20420;-67
2022/04/18 01:19:09;;;;;;;9.68;4.13;;;;;;;4.15;59.36;100624.78;5078712;28;20032;-67
2022/04/18 01:21:35;;;;;;;6.85;4.40;;;;;;;4.13;59.41;100624.03;5085659;28;20099;-67
2022/04/18 01:24:01;;;;;;;8.93;4.60;;;;;;;4.05;59.69;100612.97;5082860;28;20185;-68
2022/04/18 01:29:10;;;;;;;6.90;4.45;;;;;;;4.02;60.68;100621.97;5087965;28;20089;-68
2022/04/18 01:31:38;;;;;;;8.00;4.50;;;;;;;3.99;60.67;100613.31;5082405;28;20407;-68
2022/04/18 01:34:06;;;;;;;5.95;4.00;;;;;;;3.94;60.75;100610.91;5082682;28;20051;-67
2022/04/18 01:36:32;;;;;;;7.65;5.05;;;;;;;3.92;60.77;100602.22;5085258;28;20035;-67
2022/04/18 01:38:58;;;;;;;8.40;4.18;;;;;;;3.84;60.88;100607.06;5080898;28;20123;-68
2022/04/18 01:41:24;;;;;;;7.95;4.10;;;;;;;3.81;60.98;100598.44;5086378;28;20115;-67
2022/04/18 01:43:50;;;;;;;5.75;3.97;;;;;;;3.81;60.84;100609.06;5074515;28;20024;-67
2022/04/18 01:46:17;;;;;;;9.82;4.50;;;;;;;3.79;61.22;100608.28;5080256;28;20034;-67
2022/04/18 01:48:43;;;;;;;7.07;4.65;;;;;;;3.71;61.18;100599.91;5077690;28;20047;-67
2022/04/18 01:51:09;;;;;;;10.27;4.60;;;;;;;3.71;61.08;100603.38;5082853;28;20028;-67
2022/04/18 01:53:35;;;;;;;7.55;4.45;;;;;;;3.70;61.13;100607.00;5079062;28;20047;-67
2022/04/18 01:56:00;;;;;;;6.55;4.07;;;;;;;3.60;61.53;100595.19;5076840;28;20499;-67
2022/04/18 01:58:26;;;;;;;6.32;4.10;;;;;;;3.67;61.34;100601.84;5081814;28;20111;-67
2022/04/18 02:00:52;;;;;;;5.72;4.28;;;;;;;3.56;61.83;100598.94;5074450;28;20036;-67
2022/04/18 02:03:17;;;;;;;6.65;4.40;;;;;;;3.59;62.28;100600.56;5078096;28;20048;-67
2022/04/18 02:05:44;;;;;;;6.22;4.32;;;;;;;3.53;63.06;100591.16;5082757;28;20042;-67
2022/04/18 02:08:10;;;;;;;8.35;4.90;;;;;;;3.57;63.02;100605.09;5081165;28;20035;-67
2022/04/18 02:10:36;;;;;;;7.72;4.38;;;;;;;3.51;63.28;100595.69;5085450;28;20030;-68
2022/04/18 02:13:02;;;;;;;7.68;4.50;;;;;;;3.43;63.39;100583.78;5081789;28;20024;-68
2022/04/18 02:15:27;;;;;;;9.23;5.07;;;;;;;3.46;63.69;100595.09;5081419;28;21626;-68
2022/04/18 02:17:52;;;;;;;6.60;4.32;;;;;;;3.42;63.96;100592.69;5084387;28;20498;-68
2022/04/18 02:20:18;;;;;;;7.20;4.53;;;;;;;3.38;64.78;100591.13;5086512;28;20020;-68
2022/04/18 02:22:44;;;;;;;10.18;4.82;;;;;;;3.37;65.27;100589.41;5084095;28;20028;-68
2022/04/18 02:25:09;;;;;;;7.75;4.25;;;;;;;3.36;64.93;100587.72;5081270;28;20739;-67
2022/04/18 02:27:36;;;;;;;8.02;4.57;;;;;;;3.29;65.56;100584.50;5083352;28;20562;-67
2022/04/18 02:30:05;;;;;;;8.93;5.18;;;;;;;3.25;66.02;100582.09;5083539;28;20035;-65
2022/04/18 02:32:49;;;;;;;6.97;4.88;;;;;;;3.27;66.00;100585.53;5077176;28;20024;-64
2022/04/18 02:35:17;;;;;;;7.60;4.35;;;;;;;3.25;66.53;100585.63;5067742;28;20482;-67
2022/04/18 02:37:43;;;;;;;7.95;5.25;;;;;;;3.23;66.55;100594.59;5076298;28;20029;-67
2022/04/18 02:40:09;;;;;;;8.55;5.38;;;;;;;3.22;66.38;100590.25;5079031;28;20422;-68
2022/04/18 02:42:35;;;;;;;8.90;5.03;;;;;;;3.24;67.21;100581.28;5077763;28;20017;-68
2022/04/18 02:45:00;;;;;;;6.80;4.55;;;;;;;3.24;67.58;100580.41;5075680;28;20024;-68
2022/04/18 02:47:26;;;;;;;9.30;5.10;;;;;;;3.25;67.44;100576.81;5080382;28;20106;-67
2022/04/18 02:49:51;;;;;;;11.18;5.20;;;;;;;3.26;67.22;100566.13;5081127;28;20098;-68
2022/04/18 02:52:17;;;;;;;6.35;4.03;;;;;;;3.34;67.11;100565.72;5081190;28;20861;-67
2022/04/18 02:54:44;;;;;;;5.30;4.28;;;;;;;3.31;67.17;100564.09;5074321;28;20467;-67
2022/04/18 02:57:11;;;;;;;6.20;4.32;;;;;;;3.36;66.47;100570.03;5076805;28;20043;-65
2022/04/18 02:59:37;;;;;;;5.65;4.47;;;;;;;3.34;66.27;100557.78;5072215;28;20029;-64
2022/04/18 03:02:03;;;;;;;8.82;4.00;;;;;;;3.45;65.72;100566.84;5076446;28;20062;-64
2022/04/18 03:04:28;;;;;;;6.45;4.15;;;;;;;3.52;65.42;100576.16;5075099;28;20063;-65
2022/04/18 03:06:54;;;;;;;7.68;4.70;;;;;;;3.53;65.29;100561.13;5081760;28;20032;-65
2022/04/18 03:09:19;;;;;;;5.93;4.38;;;;;;;3.49;64.95;100544.56;5064334;28;20031;-65
2022/04/18 03:11:45;;;;;;;6.13;4.38;;;;;;;3.60;64.96;100562.50;5074616;28;20032;-64
2022/04/18 03:14:10;;;;;;;8.82;6.10;;;;;;;3.66;64.83;100562.16;5077870;28;20523;-65
2022/04/18 03:16:36;;;;;;;17.27;11.50;;;;;;;3.65;64.94;100555.16;5084802;28;20024;-65
2022/04/18 03:19:02;;;;;;;21.55;14.05;;;;;;;3.68;64.86;100549.69;5079150;28;20020;-65
2022/04/18 03:21:27;;;;;;;29.48;13.63;;;;;;;3.67;64.60;100545.28;5074073;28;20028;-65
2022/04/18 03:23:53;;;;;;;14.93;10.40;;;;;;;3.74;64.58;100544.88;5078685;28;20034;-65
2022/04/18 03:26:19;;;;;;;16.00;11.32;;;;;;;3.80;63.47;100544.53;5080723;28;20772;-65
2022/04/18 03:28:44;;;;;;;13.52;10.07;;;;;;;3.83;63.84;100544.34;5075055;28;20082;-65
2022/04/18 03:31:10;;;;;;;11.23;10.05;;;;;;;3.87;63.57;100555.66;5083165;28;20040;-65
2022/04/18 03:33:35;;;;;;;11.43;8.82;;;;;;;3.86;63.98;100548.63;5079368;28;20486;-65
2022/04/18 03:41:29;;;;;;;10.80;7.07;;;;;;;3.98;63.75;100543.50;5085360;28;20137;-68
2022/04/18 03:43:54;;;;;;;11.50;6.40;;;;;;;3.95;63.76;100533.06;5076734;28;20075;-68
2022/04/18 03:46:20;;;;;;;12.85;6.80;;;;;;;3.97;64.22;100541.75;5084129;28;20032;-64
2022/04/18 03:48:45;;;;;;;9.57;5.90;;;;;;;3.94;64.02;100525.19;5082287;28;20031;-64
2022/04/18 03:51:10;;;;;;;11.32;6.97;;;;;;;3.99;64.10;100531.06;5075424;28;20077;-65
2022/04/18 03:53:36;;;;;;;14.68;7.10;;;;;;;3.96;63.97;100518.84;5071995;28;20077;-65
2022/04/18 03:56:01;;;;;;;16.27;7.40;;;;;;;4.05;63.69;100526.28;5070932;28;20146;-65
2022/04/18 03:58:27;;;;;;;13.10;7.25;;;;;;;4.09;63.63;100533.09;5078748;28;20036;-64
2022/04/18 04:00:52;;;;;;;12.90;7.13;;;;;;;4.06;63.46;100514.69;5079976;28;20028;-65
2022/04/18 04:03:18;;;;;;;12.50;7.25;;;;;;;4.11;63.48;100525.06;5073915;28;20452;-65
2022/04/18 04:05:43;;;;;;;13.27;7.05;;;;;;;4.15;63.32;100535.41;5072693;28;20473;-64
2022/04/18 04:08:10;;;;;;;12.18;6.93;;;;;;;4.15;63.34;100524.78;5076035;28;20104;-68
2022/04/18 04:10:35;;;;;;;10.27;6.25;;;;;;;4.21;62.88;100532.41;5077786;28;20040;-68
2022/04/18 04:13:01;;;;;;;9.77;5.72;;;;;;;4.26;62.50;100526.81;5084975;28;20445;-68
2022/04/18 04:15:27;;;;;;;12.93;6.65;;;;;;;4.28;62.45;100517.81;5073349;28;20024;-65
2022/04/18 04:17:52;;;;;;;12.38;6.88;;;;;;;4.33;62.74;100526.34;5068855;28;20115;-65
2022/04/18 04:20:19;;;;;;;12.80;7.72;;;;;;;4.33;62.96;100534.31;5078170;28;20024;-64
2022/04/18 04:22:48;;;;;;;14.13;7.88;;;;;;;4.33;63.08;100520.19;5090095;28;20024;-65
2022/04/18 04:25:15;;;;;;;10.40;6.90;;;;;;;4.33;62.99;100520.19;5089064;28;20500;-68
2022/04/18 04:27:41;;;;;;;10.98;7.32;;;;;;;4.35;63.61;100519.16;5081029;28;20036;-67
2022/04/18 04:30:06;;;;;;;10.35;6.30;;;;;;;4.41;63.56;100523.25;5084956;28;20032;-68
2022/04/18 04:32:32;;;;;;;13.60;6.97;;;;;;;4.41;63.39;100520.59;5085562;28;20021;-68
2022/04/18 04:34:57;;;;;;;11.48;7.68;;;;;;;4.48;63.85;100528.09;5083971;28;20050;-65
2022/04/18 04:37:23;;;;;;;10.50;6.40;;;;;;;4.50;63.91;100525.34;5078454;28;20473;-65
2022/04/18 04:39:48;;;;;;;8.63;5.43;;;;;;;4.53;63.50;100522.53;5081489;28;20068;-65
2022/04/18 04:42:15;;;;;;;9.77;5.72;;;;;;;4.63;63.16;100532.50;5079635;28;20094;-66
2022/04/18 04:44:40;;;;;;;10.05;5.38;;;;;;;4.67;62.88;100525.19;5085976;28;20048;-64
2022/04/18 04:47:06;;;;;;;8.18;5.82;;;;;;;4.66;62.95;100523.50;5083382;28;20080;-65
2022/04/18 04:49:31;;;;;;;8.48;5.65;;;;;;;4.64;63.40;100518.28;5082303;28;20080;-68
2022/04/18 04:51:56;;;;;;;8.90;5.43;;;;;;;4.73;63.47;100524.81;5084238;28;20020;-68
2022/04/18 04:54:22;;;;;;;14.45;6.38;;;;;;;4.77;63.42;100523.69;5085533;28;20106;-69
2022/04/18 04:56:48;;;;;;;7.03;5.07;;;;;;;4.85;62.59;100532.06;5084600;28;20039;-70
2022/04/18 04:59:13;;;;;;;12.57;5.82;;;;;;;4.91;62.48;100526.38;5081687;28;20523;-69
2022/04/18 05:01:39;;;;;;;8.23;5.93;;;;;;;4.93;62.34;100521.81;5083911;28;20036;-69
2022/04/18 05:04:04;;;;;;;9.75;5.72;;;;;;;5.01;62.28;100526.66;5078307;28;20024;-69
2022/04/18 05:06:29;;;;;;;8.25;4.65;;;;;;;5.07;62.24;100535.13;5086647;28;20419;-69
2022/04/18 05:08:55;;;;;;;6.93;4.75;;;;;;;5.16;61.84;100529.19;5080643;28;20466;-69
2022/04/18 05:11:21;;;;;;;8.18;5.15;;;;;;;5.20;61.60;100530.75;5082291;28;20049;-70
2022/04/18 05:13:47;;;;;;;8.55;5.78;;;;;;;5.22;61.86;100520.00;5079141;28;20028;-69
2022/04/18 05:16:12;;;;;;;8.60;5.25;;;;;;;5.34;61.56;100521.88;5081500;28;20055;-69
2022/04/18 05:18:38;;;;;;;8.48;4.75;;;;;;;5.44;61.06;100526.53;5079568;28;20066;-69
2022/04/18 05:21:03;;;;;;;7.65;4.78;;;;;;;5.49;61.42;100532.41;5075202;28;20116;-69
2022/04/18 05:23:29;;;;;;;7.15;4.28;;;;;;;5.52;61.82;100529.56;5078993;28;20117;-69
2022/04/18 05:25:54;;;;;;;9.45;4.75;;;;;;;5.52;61.21;100508.28;5079581;28;20039;-70
2022/04/18 05:28:20;;;;;;;7.55;4.53;;;;;;;5.68;61.04;100527.59;5076793;28;20078;-70
2022/04/18 05:30:45;;;;;;;5.57;3.97;;;;;;;5.69;61.12;100532.00;5082587;28;20493;-70
2022/04/18 05:33:11;;;;;;;5.65;4.05;;;;;;;5.70;60.91;100519.53;5084252;28;20031;-69
2022/04/18 05:35:36;;;;;;;8.43;4.95;;;;;;;5.82;61.17;100527.63;5080532;28;20132;-70
2022/04/18 05:38:02;;;;;;;7.10;4.60;;;;;;;5.95;60.58;100533.00;5079136;28;20024;-71
2022/04/18 05:40:28;;;;;;;8.40;4.32;;;;;;;6.02;60.17;100536.94;5083541;28;20035;-65
2022/04/18 05:42:54;;;;;;;6.22;3.75;;;;;;;6.05;60.40;100523.44;5079201;28;20067;-65
2022/04/18 05:45:19;;;;;;;6.30;3.70;;;;;;;6.10;59.88;100521.34;5075626;28;20032;-65
2022/04/18 05:47:45;;;;;;;4.85;3.63;;;;;;;6.28;60.32;100533.41;5081279;28;20060;-65
2022/04/18 05:50:12;;;;;;;7.82;3.90;;;;;;;6.40;60.03;100524.59;5077897;28;20029;-70
2022/04/18 05:52:38;;;;;;;7.20;4.05;;;;;;;6.54;58.93;100538.69;5084649;28;20028;-69
2022/04/18 05:55:04;;;;;;;8.65;4.72;;;;;;;6.61;58.65;100529.34;5087119;28;20024;-69
2022/04/18 05:57:30;;;;;;;7.95;5.07;;;;;;;6.77;58.08;100530.00;5080304;28;20044;-70
2022/04/18 05:59:55;;;;;;;8.13;4.68;;;;;;;6.87;57.33;100531.06;5084518;28;20060;-70
2022/04/18 06:02:21;;;;;;;4.95;3.65;;;;;;;6.99;56.84;100526.69;5081771;28;20048;-70
2022/04/18 06:04:46;;;;;;;4.20;3.13;;;;;;;7.12;56.19;100513.38;5078178;28;20027;-71
2022/04/18 06:07:12;;;;;;;4.72;3.47;;;;;;;7.26;55.91;100527.44;5083240;28;20028;-69
2022/04/18 06:09:37;;;;;;;6.25;3.42;;;;;;;7.35;55.88;100512.56;5080592;28;20021;-69
2022/04/18 06:12:03;;;;;;;6.18;3.83;;;;;;;7.54;56.08;100521.81;5083978;28;20062;-69
2022/04/18 06:14:28;;;;;;;4.30;3.50;;;;;;;7.67;53.97;100513.78;5082125;28;20040;-69
2022/04/18 06:16:54;;;;;;;6.25;3.75;;;;;;;7.76;53.72;100511.28;5075082;28;20021;-70
2022/04/18 06:19:19;;;;;;;7.55;3.50;;;;;;;7.94;52.60;100512.63;5077174;28;20036;-69
2022/04/18 06:21:48;;;;;;;5.65;3.53;;;;;;;8.08;52.32;100514.25;5079158;28;20397;-69
2022/04/18 06:24:13;;;;;;;6.07;3.40;;;;;;;8.21;51.43;100517.69;5079822;28;20101;-70
2022/04/18 06:26:39;;;;;;;5.13;2.92;;;;;;;8.31;50.67;100511.59;5081864;28;20489;-70
2022/04/18 06:29:04;;;;;;;6.68;3.58;;;;;;;8.40;50.47;100510.91;5077000;28;20063;-70
2022/04/18 06:31:30;;;;;;;4.38;3.50;;;;;;;8.50;50.62;100511.91;5078619;28;20020;-70
2022/04/18 06:33:55;;;;;;;5.65;3.67;;;;;;;8.61;50.09;100517.28;5084940;28;20131;-70
2022/04/18 06:36:20;;;;;;;10.60;3.40;;;;;;;8.71;49.77;100522.78;5085450;28;20042;-70
2022/04/18 06:38:46;;;;;;;4.68;3.53;;;;;;;8.67;49.73;100497.22;5079952;28;20020;-70
2022/04/18 06:41:12;;;;;;;5.43;3.20;;;;;;;8.96;48.93;100522.56;5084777;28;20035;-69
2022/04/18 06:43:37;;;;;;;5.22;3.17;;;;;;;9.09;48.66;100521.50;5069644;28;20685;-68
2022/04/18 06:46:03;;;;;;;6.60;3.08;;;;;;;9.22;48.23;100506.16;5084092;28;20121;-70
2022/04/18 06:48:28;;;;;;;5.95;3.45;;;;;;;9.40;48.27;100511.88;5082997;28;20048;-68
2022/04/18 06:50:54;;;;;;;4.80;3.20;;;;;;;9.61;48.19;100507.47;5078521;28;20116;-70
2022/04/18 06:53:20;;;;;;;5.03;3.22;;;;;;;9.85;47.13;100502.81;5084608;28;20025;-70
2022/04/18 06:58:30;;;;;;;6.10;3.70;;;;;;;10.24;45.63;100510.28;5080655;28;20039;-69
2022/04/18 07:00:55;;;;;;;6.15;3.17;;;;;;;10.43;44.85;100505.06;5083599;28;20063;-70
2022/04/18 07:03:21;;;;;;;5.85;3.53;;;;;;;10.55;44.71;100504.00;5083716;28;20063;-70
2022/04/18 07:05:47;;;;;;;5.40;3.80;;;;;;;10.66;44.97;100495.94;5087087;28;20106;-70
2022/04/18 07:08:13;;;;;;;5.38;3.50;;;;;;;10.88;44.74;100495.78;5079145;28;20470;-70
2022/04/18 07:10:38;;;;;;;5.05;3.15;;;;;;;11.06;44.56;100499.56;5081057;28;20041;-70
2022/04/18 07:13:04;;;;;;;5.07;3.08;;;;;;;11.27;43.63;100503.06;5075692;28;20028;-70
2022/04/18 07:15:29;;;;;;;5.38;3.15;;;;;;;11.40;43.15;100490.25;5081918;28;20032;-67
2022/04/18 07:17:55;;;;;;;6.35;2.90;;;;;;;11.61;43.03;100481.25;5067219;28;20024;-67
2022/04/18 07:20:20;;;;;;;4.32;3.00;;;;;;;11.75;42.74;100471.00;5076218;28;20039;-66
2022/04/18 07:22:46;;;;;;;5.95;3.50;;;;;;;12.04;41.51;100479.09;5081141;28;20100;-67
2022/04/18 07:25:11;;;;;;;3.38;3.00;;;;;;;12.27;42.23;100481.41;5073817;28;20535;-66
2022/04/18 07:27:37;;;;;;;4.57;3.03;;;;;;;12.54;40.24;100470.75;5073407;28;20589;-67
2022/04/18 07:30:04;;;;;;;3.17;2.63;;;;;;;12.80;40.26;100474.53;5087039;28;20023;-68
2022/04/18 07:32:29;;;;;;;5.20;3.05;;;;;;;13.00;39.47;100468.13;5074740;28;20501;-66
2022/04/18 07:35:03;;;;;;;5.47;3.85;;;;;;;13.23;38.54;100468.63;5074003;28;20074;-67
2022/04/18 07:37:28;;;;;;;7.63;4.00;;;;;;;13.43;37.95;100468.41;5082087;28;20032;-66
2022/04/18 07:39:54;;;;;;;5.38;3.33;;;;;;;13.49;38.25;100450.78;5077847;28;20032;-68
2022/04/18 07:42:20;;;;;;;4.53;2.95;;;;;;;13.74;38.79;100459.00;5085541;28;20047;-67
2022/04/18 07:44:46;;;;;;;5.30;3.65;;;;;;;13.94;37.68;100453.47;5069878;28;20115;-66
2022/04/18 07:47:11;;;;;;;5.97;3.60;;;;;;;14.09;37.01;100455.47;5073176;28;20074;-67
2022/04/18 07:49:37;;;;;;;6.80;3.50;;;;;;;14.26;36.38;100460.09;5076208;28;20426;-66
2022/04/18 07:52:02;;;;;;;4.95;3.67;;;;;;;14.34;36.61;100440.41;5074620;28;20295;-70
2022/04/18 07:54:28;;;;;;;4.38;3.63;;;;;;;14.52;36.36;100444.81;5081060;28;20132;-69
2022/04/18 07:56:53;;;;;;;7.20;3.28;;;;;;;14.54;36.02;100442.78;5077168;28;20040;-71
2022/04/18 07:59:19;;;;;;;6.50;3.70;;;;;;;14.57;35.83;100431.66;5072984;28;20046;-69
2022/04/18 08:01:44;;;;;;;4.18;2.80;;;;;;;14.71;35.61;100441.91;5080867;28;20024;-69
2022/04/18 08:04:10;;;;;;;5.82;3.50;;;;;;;14.83;35.70;100447.91;5077349;28;20040;-69
2022/04/18 08:06:35;;;;;;;5.05;3.35;;;;;;;14.94;35.83;100429.56;5078523;28;20382;-68
2022/04/18 08:09:01;;;;;;;8.27;3.95;;;;;;;15.04;35.58;100424.03;5073974;28;20497;-69
2022/04/18 08:11:27;;;;;;;6.32;3.08;;;;;;;15.11;35.00;100414.28;5084440;28;20363;-68
2022/04/18 08:13:53;;;;;;;4.38;3.05;;;;;;;15.33;35.19;100417.28;5077485;28;20081;-68
2022/04/18 08:16:19;;;;;;;4.93;3.65;;;;;;;15.66;35.18;100424.53;5076799;28;20032;-69
2022/04/18 08:18:45;;;;;;;6.28;3.47;;;;;;;16.11;33.45;100423.25;5075238;28;20532;-69
2022/04/18 08:21:12;;;;;;;6.25;3.47;;;;;;;16.76;32.21;100424.97;5077731;28;20496;-71
2022/04/18 08:23:38;;;;;;;4.57;3.13;;;;;;;17.49;31.11;100423.78;5088377;28;20102;-70
2022/04/18 08:26:04;;;;;;;5.57;3.28;;;;;;;18.39;29.44;100421.22;5081443;28;20178;-70
2022/04/18 08:28:31;;;;;;;5.15;2.75;;;;;;;19.51;27.59;100420.03;5073727;28;20035;-69
2022/04/18 08:30:57;;;;;;;4.72;3.63;;;;;;;20.85;26.11;100411.00;5084097;28;20393;-69
2022/04/18 08:33:24;;;;;;;4.60;3.60;;;;;;;21.95;25.17;100401.75;5074948;28;20028;-69
2022/04/18 08:35:50;;;;;;;4.82;3.00;;;;;;;23.13;24.26;100405.44;5076746;28;20032;-69
2022/04/18 08:38:15;;;;;;;3.35;2.80;;;;;;;24.00;22.71;100382.00;5079581;28;20081;-70
2022/04/18 08:40:43;;;;;;;3.80;2.50;;;;;;;24.41;21.28;100388.66;5077616;28;20035;-68
2022/04/18 08:43:08;;;;;;;4.05;2.58;;;;;;;23.78;21.96;100369.63;5074985;28;20031;-68
2022/04/18 08:45:37;;;;;;;2.60;2.35;;;;;;;23.71;22.16;100372.44;5074965;28;20039;-68
2022/04/18 08:53:31;;;;;;;5.10;2.35;;;;;;;23.43;22.24;100374.66;5072974;28;20039;-68
2022/04/18 08:55:59;;;;;;;3.97;2.67;;;;;;;22.83;22.81;100388.63;5074228;28;20033;-68
2022/04/18 08:58:28;;;;;;;6.13;2.40;;;;;;;21.72;24.59;100393.03;5077783;28;20027;-67
2022/04/18 09:00:59;;;;;;;5.85;2.20;;;;;;;20.81;26.27;100376.16;5072254;28;20016;-68
2022/04/18 09:03:25;;;;;;;4.82;2.72;;;;;;;19.97;27.35;100390.66;5075468;28;20032;-68
2022/04/18 09:06:04;;;;;;;5.05;2.95;;;;;;;19.15;28.41;100394.63;5076365;28;20089;-68
2022/04/18 09:08:32;;;;;;;8.07;3.38;;;;;;;18.31;30.30;100404.94;5079356;28;20024;-67
2022/04/18 09:10:58;;;;;;;5.22;3.17;;;;;;;17.53;32.08;100397.97;5077387;28;20031;-66
2022/04/18 09:13:24;;;;;;;4.05;3.15;;;;;;;16.90;33.80;100416.16;5076211;28;20090;-67
2022/04/18 09:15:49;;;;;;;6.60;2.90;;;;;;;16.31;35.11;100428.16;5073496;28;20019;-68
2022/04/18 09:18:19;;;;;;;5.47;3.65;;;;;;;15.70;36.64;100416.91;5073679;28;20060;-69
2022/04/18 09:20:50;;;;;;;4.63;3.20;;;;;;;15.17;36.91;100428.00;5074737;28;20043;-68
2022/04/18 09:23:34;;;;;;;5.43;3.45;;;;;;;14.52;38.34;100422.34;5081584;28;20051;-67
2022/04/18 09:26:01;;;;;;;5.07;3.28;;;;;;;14.11;39.22;100428.34;5080401;28;20058;-66
2022/04/18 09:28:40;;;;;;;6.97;3.78;;;;;;;13.70;40.88;100424.41;5086091;28;20047;-68
2022/04/18 09:31:13;;;;;;;5.45;3.08;;;;;;;13.46;41.80;100424.13;5078224;28;20541;-67
2022/04/18 09:33:41;;;;;;;3.45;2.60;;;;;;;13.15;41.39;100420.03;5081937;28;20047;-68
2022/04/18 09:36:12;;;;;;;5.10;3.03;;;;;;;12.91;40.97;100425.06;5079166;28;20028;-66
2022/04/18 09:38:48;;;;;;;4.07;3.15;;;;;;;12.80;41.24;100428.78;5078446;28;20099;-67
2022/04/18 09:41:20;;;;;;;4.28;2.95;;;;;;;12.51;42.19;100421.78;5085329;28;20107;-68
2022/04/18 09:43:47;;;;;;;4.22;3.00;;;;;;;12.47;43.33;100414.97;5084475;28;20089;-67
2022/04/18 09:46:14;;;;;;;4.00;2.83;;;;;;;12.43;43.32;100400.13;5084999;28;20044;-67
2022/04/18 09:48:41;;;;;;;5.15;3.20;;;;;;;12.47;42.95;100415.81;5082659;28;20036;-66
2022/04/18 09:51:12;;;;;;;4.40;3.35;;;;;;;12.55;41.79;100393.59;5083095;28;20045;-67
2022/04/18 09:53:40;;;;;;;3.63;3.00;;;;;;;12.73;42.25;100391.81;5076165;28;20044;-66
2022/04/18 09:56:06;;;;;;;4.68;2.95;;;;;;;12.84;41.49;100389.78;5085094;28;20557;-66
2022/04/18 09:58:33;;;;;;;5.63;3.58;;;;;;;13.03;40.49;100383.53;5081761;28;20549;-66
2022/04/18 10:01:03;;;;;;;4.38;3.30;;;;;;;13.14;40.17;100386.88;5079255;28;20023;-67
2022/04/18 10:03:29;;;;;;;7.57;3.42;;;;;;;13.27;40.42;100390.09;5081636;28;20283;-67
2022/04/18 10:05:55;;;;;;;4.63;3.20;;;;;;;13.33;38.52;100383.25;5073791;28;20107;-66
2022/04/18 10:08:21;;;;;;;4.85;3.53;;;;;;;13.32;39.25;100386.94;5082341;28;20116;-67
2022/04/18 10:10:48;;;;;;;5.85;2.92;;;;;;;13.24;38.33;100370.66;5074403;28;20984;-66
2022/04/18 10:13:13;;;;;;;4.25;3.00;;;;;;;13.35;39.34;100400.09;5078639;28;20458;-67
2022/04/18 10:15:39;;;;;;;4.82;3.35;;;;;;;13.31;39.71;100401.38;5077980;28;20035;-67
2022/04/18 10:18:07;;;;;;;6.15;2.65;;;;;;;13.18;39.43;100401.75;5082750;28;20035;-67
2022/04/18 10:21:00;;;;;;;4.53;3.05;;;;;;;13.08;40.05;100408.16;5074825;28;20044;-67
2022/04/18 10:23:42;;;;;;;4.78;2.70;;;;;;;12.96;39.98;100422.78;5078120;28;20085;-67
2022/04/18 10:26:29;;;;;;;6.10;2.80;;;;;;;12.83;40.73;100427.66;5080376;28;20040;-67
2022/04/18 10:29:00;;;;;;;3.53;2.42;;;;;;;12.57;43.05;100424.72;5073199;28;20029;-67
2022/04/18 10:31:39;;;;;;;4.03;2.90;;;;;;;12.42;43.39;100418.13;5074755;28;20101;-69
2022/04/18 10:34:05;;;;;;;3.28;2.50;;;;;;;12.21;44.58;100398.59;5076918;28;20028;-67
2022/04/18 10:36:32;;;;;;;5.07;2.40;;;;;;;11.94;45.22;100393.09;5077612;28;20521;-69
2022/04/18 10:39:04;;;;;;;3.47;2.42;;;;;;;11.94;46.09;100390.41;5077428;28;20107;-68
2022/04/18 10:41:32;;;;;;;3.03;2.17;;;;;;;12.00;45.42;100391.69;5076900;28;20039;-67
2022/04/18 10:44:01;;;;;;;3.58;2.70;;;;;;;11.96;44.50;100388.41;5081815;28;20097;-68
2022/04/18 10:46:28;;;;;;;4.18;2.47;;;;;;;11.98;44.00;100382.91;5075131;28;20032;-67
2022/04/18 10:48:56;;;;;;;3.95;2.42;;;;;;;12.10;43.94;100384.47;5082154;28;20113;-67
2022/04/18 10:51:28;;;;;;;4.40;2.70;;;;;;;11.95;44.37;100391.25;5083034;28;20036;-68
2022/04/18 10:54:18;;;;;;;4.15;2.75;;;;;;;12.16;44.72;100392.78;5082284;28;20055;-68
2022/04/18 10:56:56;;;;;;;4.85;3.08;;;;;;;11.78;44.83;100395.50;5080999;28;20512;-67
2022/04/18 10:59:33;;;;;;;4.43;2.95;;;;;;;11.72;44.84;100395.19;5081772;28;20032;-66
2022/04/18 11:02:01;;;;;;;3.42;2.42;;;;;;;11.47;45.27;100383.97;5082575;28;20040;-68
2022/04/18 11:04:38;;;;;;;5.43;2.83;;;;;;;11.25;45.49;100376.16;5082855;28;20039;-69
2022/04/18 11:07:06;;;;;;;3.72;3.00;;;;;;;11.25;44.88;100381.50;5080268;28;20527;-68
2022/04/18 11:09:52;;;;;;;6.30;3.10;;;;;;;11.17;45.99;100400.16;5080514;28;20055;-68
2022/04/18 11:12:21;;;;;;;4.90;2.97;;;;;;;11.18;46.07;100406.34;5080008;28;20120;-69
2022/04/18 11:14:52;;;;;;;5.38;2.88;;;;;;;11.42;46.16;100393.44;5074248;28;20090;-66
2022/04/18 11:17:32;;;;;;;5.97;3.67;;;;;;;11.34;46.76;100396.81;5085783;28;20024;-67
2022/04/18 11:20:28;;;;;;;4.28;3.00;;;;;;;11.01;47.94;100386.41;5080322;28;20485;-67
2022/04/18 11:23:33;;;;;;;4.00;2.85;;;;;;;10.93;49.69;100385.38;5069420;28;20433;-68
2022/04/18 11:26:00;;;;;;;3.83;2.88;;;;;;;10.97;49.43;100384.94;5017417;28;20169;-67
2022/04/18 11:28:43;;;;;;;3.65;2.50;;;;;;;11.07;48.46;100376.94;4999899;28;20154;-67
2022/04/18 11:31:16;;;;;;;5.72;3.13;;;;;;;11.28;46.73;100364.28;5043371;28;20068;-67
2022/04/18 11:33:43;;;;;;;6.35;3.00;;;;;;;11.38;46.36;100371.38;5075064;28;20047;-69
2022/04/18 11:36:09;;;;;;;4.38;3.00;;;;;;;11.64;46.03;100384.31;5085013;28;20035;-69
2022/04/18 11:38:36;;;;;;;3.53;2.90;;;;;;;11.50;47.03;100388.22;5071117;28;20077;-68
2022/04/18 11:41:12;;;;;;;5.72;2.97;;;;;;;11.52;47.94;100391.63;5071843;28;20029;-68
2022/04/18 11:43:38;;;;;;;4.20;2.65;;;;;;;11.55;48.19;100400.22;5076198;28;20477;-68
2022/04/18 11:46:07;;;;;;;4.10;2.83;;;;;;;11.50;50.42;100383.69;5079033;28;20111;-68